createdAt,value
2023-05-08T00:02:17.533Z,7.40
2023-05-08T00:04:45.983Z,6.93
2023-05-08T00:07:13.789Z,6.88
2023-05-08T00:09:42.923Z,6.85
2023-05-08T00:12:11.316Z,6.55
2023-05-08T00:14:39.138Z,7.55
2023-05-08T00:17:06.965Z,7.97
2023-05-08T00:19:35.359Z,6.97
2023-05-08T00:22:03.116Z,7.03
2023-05-08T00:24:30.909Z,6.90
2023-05-08T00:27:00.105Z,6.78
2023-05-08T00:29:27.854Z,7.25
2023-05-08T00:31:55.729Z,6.65
2023-05-08T00:34:24.124Z,6.38
2023-05-08T00:36:51.898Z,7.00
2023-05-08T00:39:19.921Z,6.18
2023-05-08T00:41:48.201Z,6.85
2023-05-08T00:44:17.623Z,6.53
2023-05-08T00:46:46.621Z,6.82
2023-05-08T00:49:16.210Z,6.97
2023-05-08T00:51:46.220Z,6.07
2023-05-08T00:54:14.723Z,6.63
2023-05-08T00:56:42.981Z,6.85
2023-05-08T00:59:14.551Z,6.20
2023-05-08T01:01:45.418Z,7.25
2023-05-08T01:04:13.237Z,9.25
2023-05-08T01:06:41.112Z,9.90
2023-05-08T01:12:08.579Z,14.05
2023-05-08T01:14:46.442Z,14.85
2023-05-08T01:17:24.230Z,14.85
2023-05-08T01:20:06.336Z,15.75
2023-05-08T01:23:06.505Z,16.38
2023-05-08T01:26:12.157Z,15.02
2023-05-08T01:29:14.367Z,17.63
2023-05-08T01:31:56.020Z,17.08
2023-05-08T01:34:32.352Z,16.85
2023-05-08T01:37:04.487Z,17.80
2023-05-08T01:39:40.160Z,16.23
2023-05-08T01:42:15.659Z,18.40
2023-05-08T01:44:48.899Z,16.40
2023-05-08T01:47:18.756Z,16.40
2023-05-08T01:49:51.479Z,17.35
2023-05-08T01:52:24.214Z,17.60
2023-05-08T01:55:00.051Z,17.63
2023-05-08T01:57:30.655Z,16.80
2023-05-08T02:00:01.969Z,16.52
2023-05-08T02:02:33.336Z,15.52
2023-05-08T02:05:05.896Z,16.25
2023-05-08T02:07:38.443Z,16.00
2023-05-08T02:10:09.252Z,16.30
2023-05-08T02:12:40.519Z,16.88
2023-05-08T02:15:10.768Z,17.02
2023-05-08T02:17:41.887Z,18.60
2023-05-08T02:20:15.160Z,19.60
2023-05-08T02:22:46.189Z,18.52
2023-05-08T02:25:16.273Z,20.33
2023-05-08T02:27:47.419Z,20.00
2023-05-08T02:30:16.459Z,20.88
2023-05-08T02:32:45.289Z,23.27
2023-05-08T02:35:18.575Z,22.73
2023-05-08T02:37:48.938Z,23.42
2023-05-08T02:40:19.140Z,25.38
2023-05-08T02:42:47.749Z,25.52
2023-05-08T02:45:15.794Z,25.63
2023-05-08T02:47:49.153Z,25.80
2023-05-08T02:50:23.112Z,26.92
2023-05-08T02:52:54.118Z,24.25
2023-05-08T02:55:34.172Z,28.63
2023-05-08T02:58:12.481Z,32.65
2023-05-08T03:00:46.408Z,35.83
2023-05-08T03:03:21.290Z,43.83
2023-05-08T03:05:53.609Z,46.20
2023-05-08T03:08:27.575Z,50.28
2023-05-08T03:10:58.411Z,53.10
2023-05-08T03:13:29.187Z,52.40
2023-05-08T03:16:00.013Z,52.00
2023-05-08T03:18:33.906Z,52.97
2023-05-08T03:21:04.603Z,56.33
2023-05-08T03:23:35.635Z,53.83
2023-05-08T03:26:05.807Z,57.97
2023-05-08T03:28:34.030Z,61.70
2023-05-08T03:31:03.275Z,61.97
2023-05-08T03:33:33.067Z,61.17
2023-05-08T03:36:01.000Z,61.22
2023-05-08T03:38:30.924Z,64.00
2023-05-08T03:41:00.709Z,66.22
2023-05-08T03:43:30.889Z,62.22
2023-05-08T03:45:59.728Z,65.38
2023-05-08T03:48:28.542Z,64.10
2023-05-08T03:50:57.698Z,63.85
2023-05-08T03:53:25.867Z,60.22
2023-05-08T03:55:55.047Z,65.28
2023-05-08T03:58:29.972Z,65.85
2023-05-08T04:01:05.852Z,69.10
2023-05-08T04:03:53.972Z,67.38
2023-05-08T04:06:35.736Z,69.05
2023-05-08T04:09:18.774Z,60.38
2023-05-08T04:12:03.283Z,65.90
2023-05-08T04:14:36.441Z,67.28
2023-05-08T04:17:07.845Z,64.63
2023-05-08T04:19:40.863Z,65.97
2023-05-08T04:22:09.583Z,63.78
2023-05-08T04:24:43.753Z,65.97
2023-05-08T04:27:14.023Z,62.70
2023-05-08T04:29:41.946Z,63.72
2023-05-08T04:32:12.094Z,63.25
2023-05-08T04:34:39.957Z,63.63
2023-05-08T04:37:08.438Z,62.53
2023-05-08T04:39:36.827Z,64.88
2023-05-08T04:42:05.000Z,62.42
2023-05-08T04:44:34.147Z,64.55
2023-05-08T04:47:02.441Z,65.47
2023-05-08T04:49:30.209Z,65.35
2023-05-08T04:51:58.035Z,65.82
2023-05-08T04:54:26.335Z,60.50
2023-05-08T04:56:54.145Z,66.32
2023-05-08T04:59:21.917Z,63.92
2023-05-08T05:01:51.698Z,61.72
2023-05-08T05:04:19.482Z,64.63
2023-05-08T05:06:47.240Z,63.38
2023-05-08T05:09:15.531Z,66.80
2023-05-08T05:11:43.398Z,64.93
2023-05-08T05:14:11.187Z,63.58
2023-05-08T05:16:39.709Z,60.15
2023-05-08T05:19:08.904Z,60.45
2023-05-08T05:21:37.919Z,58.15
2023-05-08T05:24:06.558Z,61.38
2023-05-08T05:26:36.366Z,57.57
2023-05-08T05:29:04.674Z,55.40
2023-05-08T05:31:33.134Z,59.10
2023-05-08T05:34:01.012Z,55.72
2023-05-08T05:36:30.767Z,56.05
2023-05-08T05:38:58.773Z,58.00
2023-05-08T05:41:26.646Z,59.33
2023-05-08T05:43:54.427Z,58.83
2023-05-08T05:46:26.712Z,60.00
2023-05-08T05:48:54.607Z,60.05
2023-05-08T05:51:22.389Z,58.97
2023-05-08T05:53:52.040Z,58.90
2023-05-08T05:58:47.404Z,53.40
2023-05-08T06:01:15.850Z,59.92
2023-05-08T06:03:44.011Z,53.72
2023-05-08T06:06:12.484Z,58.67
2023-05-08T06:08:40.913Z,56.60
2023-05-08T06:11:10.041Z,55.72
2023-05-08T06:13:40.086Z,56.22
2023-05-08T06:16:09.392Z,54.70
2023-05-08T06:18:37.152Z,54.15
2023-05-08T06:21:05.272Z,57.80
2023-05-08T06:23:33.678Z,56.95
2023-05-08T06:26:01.465Z,56.78
2023-05-08T06:28:30.684Z,56.33
2023-05-08T06:30:59.034Z,56.10
2023-05-08T06:33:27.171Z,55.65
2023-05-08T06:35:55.096Z,54.28
2023-05-08T06:38:23.486Z,54.60
2023-05-08T06:40:51.390Z,54.45
2023-05-08T06:43:19.200Z,56.10
2023-05-08T06:45:49.017Z,55.00
2023-05-08T06:48:17.047Z,53.75
2023-05-08T06:50:45.224Z,56.00
2023-05-08T06:53:13.714Z,53.95
2023-05-08T06:55:44.150Z,54.97
2023-05-08T06:58:12.203Z,55.85
2023-05-08T07:00:41.035Z,56.35
2023-05-08T07:03:10.369Z,55.33
2023-05-08T07:05:38.189Z,58.28
2023-05-08T07:08:06.514Z,54.83
2023-05-08T07:10:34.269Z,54.85
2023-05-08T07:13:02.089Z,53.05
2023-05-08T07:15:33.059Z,51.72
2023-05-08T07:18:00.889Z,54.00
2023-05-08T07:20:30.387Z,52.25
2023-05-08T07:22:58.711Z,47.78
2023-05-08T07:25:26.455Z,47.17
2023-05-08T07:27:54.269Z,47.65
2023-05-08T07:30:22.695Z,46.22
2023-05-08T07:32:50.611Z,43.95
2023-05-08T07:35:19.629Z,49.40
2023-05-08T07:37:49.145Z,45.97
2023-05-08T07:42:45.738Z,42.78
2023-05-08T07:45:15.689Z,47.05
2023-05-08T07:47:53.634Z,45.15
2023-05-08T07:50:24.808Z,45.05
2023-05-08T07:52:54.137Z,45.90
2023-05-08T07:55:22.543Z,45.03
2023-05-08T07:57:50.946Z,45.60
2023-05-08T08:00:19.186Z,44.03
2023-05-08T08:02:47.204Z,45.08
2023-05-08T08:05:15.879Z,45.90
2023-05-08T08:07:44.077Z,44.60
2023-05-08T08:10:13.496Z,42.42
2023-05-08T08:12:41.956Z,43.53
2023-05-08T08:15:10.688Z,42.55
2023-05-08T08:17:38.732Z,40.90
2023-05-08T08:20:08.316Z,40.08
2023-05-08T08:25:04.536Z,40.65
2023-05-08T08:27:34.522Z,40.80
2023-05-08T08:30:15.846Z,39.63
2023-05-08T08:32:45.949Z,41.25
2023-05-08T08:35:14.564Z,40.67
2023-05-08T08:37:43.021Z,38.45
2023-05-08T08:40:11.810Z,38.72
2023-05-08T08:42:40.990Z,37.97
2023-05-08T08:45:10.196Z,38.03
2023-05-08T08:47:39.864Z,36.95
2023-05-08T08:50:11.990Z,33.90
2023-05-08T08:52:44.910Z,35.22
2023-05-08T08:55:16.450Z,35.55
2023-05-08T08:57:53.569Z,38.22
2023-05-08T09:00:23.324Z,38.10
2023-05-08T09:02:51.752Z,39.47
2023-05-08T09:05:20.377Z,39.42
2023-05-08T09:07:48.751Z,41.13
2023-05-08T09:10:16.733Z,41.00
2023-05-08T09:12:46.212Z,40.95
2023-05-08T09:17:42.376Z,40.25
2023-05-08T09:20:12.549Z,40.80
2023-05-08T09:22:41.902Z,37.45
2023-05-08T09:25:10.681Z,36.53
2023-05-08T09:27:38.632Z,36.35
2023-05-08T09:30:09.291Z,37.85
2023-05-08T09:32:39.420Z,36.15
2023-05-08T09:35:09.409Z,35.05
2023-05-08T09:37:40.573Z,34.10
2023-05-08T09:40:15.976Z,33.17
2023-05-08T09:42:44.543Z,31.83
2023-05-08T09:45:28.914Z,30.45
2023-05-08T09:47:56.846Z,30.70
2023-05-08T09:50:25.336Z,30.75
2023-05-08T09:52:53.244Z,30.73
2023-05-08T09:55:21.755Z,30.48
2023-05-08T09:57:57.876Z,30.10
2023-05-08T10:00:29.035Z,28.63
2023-05-08T10:02:59.509Z,30.27
2023-05-08T10:05:30.400Z,30.30
2023-05-08T10:07:58.462Z,29.20
2023-05-08T10:10:27.815Z,30.55
2023-05-08T10:12:58.021Z,30.77
2023-05-08T10:15:30.881Z,29.77
2023-05-08T10:18:04.759Z,29.08
2023-05-08T10:20:34.192Z,29.10
2023-05-08T10:23:03.958Z,28.40
2023-05-08T10:25:34.469Z,29.45
2023-05-08T10:28:11.106Z,25.95
2023-05-08T10:30:44.813Z,27.67
2023-05-08T10:33:17.982Z,28.08
2023-05-08T10:35:46.915Z,27.58
2023-05-08T10:38:17.575Z,26.10
2023-05-08T10:40:46.120Z,25.15
2023-05-08T10:43:14.335Z,26.80
2023-05-08T10:45:44.293Z,27.13
2023-05-08T10:48:25.379Z,23.75
2023-05-08T10:51:01.969Z,23.88
2023-05-08T10:53:36.544Z,23.15
2023-05-08T10:56:04.639Z,22.27
2023-05-08T10:58:33.504Z,21.13
2023-05-08T11:01:16.979Z,24.50
2023-05-08T11:03:46.830Z,22.25
2023-05-08T11:06:15.761Z,23.30
2023-05-08T11:08:50.022Z,21.90
2023-05-08T11:11:25.235Z,20.67
2023-05-08T11:13:57.115Z,20.20
2023-05-08T11:17:03.728Z,20.40
2023-05-08T11:19:33.444Z,17.55
2023-05-08T11:22:27.117Z,17.23
2023-05-08T11:25:03.765Z,17.95
2023-05-08T11:27:37.308Z,16.80
2023-05-08T11:30:25.512Z,15.65
2023-05-08T11:33:18.468Z,15.05
2023-05-08T11:35:58.326Z,17.48
2023-05-08T11:38:28.797Z,16.45
2023-05-08T11:40:59.436Z,16.63
2023-05-08T11:44:09.474Z,20.35
2023-05-08T11:46:42.989Z,21.40
2023-05-08T11:49:16.509Z,22.55
2023-05-08T11:51:47.860Z,22.52
2023-05-08T11:54:17.397Z,24.30
2023-05-08T11:59:16.855Z,23.42
2023-05-08T12:01:53.566Z,23.83
2023-05-08T12:04:24.997Z,24.88
2023-05-08T12:06:58.767Z,25.45
2023-05-08T12:09:27.426Z,22.73
2023-05-08T12:11:58.956Z,23.63
2023-05-08T12:14:26.899Z,22.52
2023-05-08T12:16:55.232Z,21.08
2023-05-08T12:19:23.037Z,22.27
2023-05-08T12:21:51.400Z,22.80
2023-05-08T12:24:23.766Z,22.50
2023-05-08T12:26:56.647Z,21.75
2023-05-08T12:29:25.173Z,23.90
2023-05-08T12:31:53.743Z,25.05
2023-05-08T12:34:23.911Z,26.23
2023-05-08T12:37:03.350Z,27.77
2023-05-08T12:42:04.200Z,24.98
2023-05-08T12:44:32.284Z,24.83
2023-05-08T12:47:00.156Z,25.30
2023-05-08T12:49:29.579Z,25.17
2023-05-08T12:52:15.200Z,25.65
2023-05-08T12:54:49.783Z,29.15
2023-05-08T12:57:19.561Z,30.65
2023-05-08T12:59:47.975Z,29.08
2023-05-08T13:02:18.987Z,30.38
2023-05-08T13:04:47.339Z,28.35
2023-05-08T13:07:15.549Z,28.25
2023-05-08T13:09:59.766Z,26.02
2023-05-08T13:12:27.619Z,26.85
2023-05-08T13:14:55.438Z,25.10
2023-05-08T13:17:23.839Z,24.38
2023-05-08T13:19:51.432Z,23.45
2023-05-08T13:22:22.907Z,23.50
2023-05-08T13:24:51.232Z,22.73
2023-05-08T13:27:20.434Z,24.65
2023-05-08T13:29:48.218Z,23.40
2023-05-08T13:32:16.588Z,25.13
2023-05-08T13:34:50.720Z,25.10
2023-05-08T13:37:20.000Z,26.10
2023-05-08T13:39:47.823Z,28.23
2023-05-08T13:42:15.585Z,28.17
2023-05-08T13:44:45.154Z,28.75
2023-05-08T13:47:13.024Z,29.95
2023-05-08T13:49:40.812Z,28.73
2023-05-08T13:52:08.627Z,31.20
2023-05-08T13:54:37.708Z,30.70
2023-05-08T13:57:05.977Z,30.65
2023-05-08T13:59:34.161Z,28.17
2023-05-08T14:02:03.662Z,28.48
2023-05-08T14:06:59.298Z,26.42
2023-05-08T14:09:27.143Z,26.27
2023-05-08T14:11:55.063Z,25.27
2023-05-08T14:14:23.061Z,24.23
2023-05-08T14:16:51.272Z,24.50
2023-05-08T14:19:20.416Z,21.50
2023-05-08T14:21:48.607Z,19.90
2023-05-08T14:24:16.495Z,18.80
2023-05-08T14:26:45.015Z,19.63
2023-05-08T14:29:13.366Z,18.70
2023-05-08T14:31:41.412Z,19.35
2023-05-08T14:34:09.351Z,18.48
2023-05-08T14:36:38.876Z,16.80
2023-05-08T14:41:34.472Z,15.88
2023-05-08T14:44:02.884Z,17.92
2023-05-08T14:46:31.266Z,18.77
2023-05-08T14:48:59.111Z,19.85
2023-05-08T14:51:27.023Z,20.88
2023-05-08T14:53:56.560Z,19.27
2023-05-08T14:56:24.909Z,21.58
2023-05-08T14:58:55.688Z,19.63
2023-05-08T15:01:23.364Z,20.85
2023-05-08T15:03:53.247Z,20.42
2023-05-08T15:06:22.871Z,17.77
2023-05-08T15:08:51.791Z,17.67
2023-05-08T15:13:56.077Z,17.95
2023-05-08T15:16:24.107Z,18.38
2023-05-08T15:18:52.054Z,17.40
2023-05-08T15:21:21.573Z,16.25
2023-05-08T15:26:17.651Z,17.15
2023-05-08T15:28:46.770Z,16.60
2023-05-08T15:31:15.422Z,17.05
2023-05-08T15:33:44.930Z,15.45
2023-05-08T15:36:13.709Z,14.45
2023-05-08T15:38:42.783Z,14.63
2023-05-08T15:41:14.758Z,14.70
2023-05-08T15:43:45.643Z,14.52
2023-05-08T15:46:14.865Z,12.30
2023-05-08T15:48:42.740Z,12.82
2023-05-08T15:51:11.020Z,11.07
2023-05-08T15:53:38.862Z,12.00
2023-05-08T15:56:06.954Z,12.20
2023-05-08T15:58:36.805Z,10.80
2023-05-08T16:01:05.387Z,11.50
2023-05-08T16:03:34.747Z,9.83
2023-05-08T16:08:30.815Z,10.25
2023-05-08T16:10:58.597Z,10.48
2023-05-08T16:13:27.117Z,10.50
2023-05-08T16:15:55.253Z,10.30
2023-05-08T16:18:23.053Z,9.63
2023-05-08T16:20:52.796Z,10.65
2023-05-08T16:23:20.569Z,9.45
2023-05-08T16:25:48.373Z,10.88
2023-05-08T16:28:16.207Z,10.43
2023-05-08T16:30:44.026Z,10.18
2023-05-08T16:33:12.538Z,9.93
2023-05-08T16:35:41.426Z,10.30
2023-05-08T16:38:10.952Z,10.40
2023-05-08T16:43:08.822Z,10.80
2023-05-08T16:45:36.753Z,10.35
2023-05-08T16:48:05.180Z,10.18
2023-05-08T16:50:33.636Z,10.07
2023-05-08T16:53:02.146Z,10.00
2023-05-08T16:55:31.304Z,11.30
2023-05-08T16:57:59.642Z,10.30
2023-05-08T17:00:27.583Z,10.90
2023-05-08T17:02:55.423Z,10.30
2023-05-08T17:05:24.177Z,10.63
2023-05-08T17:07:52.035Z,10.63
2023-05-08T17:10:19.820Z,11.20
2023-05-08T17:12:50.882Z,11.55
2023-05-08T17:15:19.560Z,11.10
2023-05-08T17:17:47.686Z,11.32
2023-05-08T17:20:16.625Z,10.60
2023-05-08T17:22:44.466Z,9.93
2023-05-08T17:25:12.257Z,9.93
2023-05-08T17:27:40.472Z,9.52
2023-05-08T17:30:12.190Z,9.80
2023-05-08T17:32:40.384Z,9.70
2023-05-08T17:35:10.166Z,9.73
2023-05-08T17:37:38.043Z,9.35
2023-05-08T17:40:06.806Z,10.00
2023-05-08T17:42:35.958Z,8.98
2023-05-08T17:45:04.953Z,9.30
2023-05-08T17:47:34.147Z,8.98
2023-05-08T17:50:02.552Z,8.93
2023-05-08T17:52:30.352Z,8.75
2023-05-08T17:54:58.334Z,9.07
2023-05-08T17:57:26.482Z,8.40
2023-05-08T17:59:54.280Z,8.95
2023-05-08T18:02:22.075Z,8.05
2023-05-08T18:04:51.747Z,8.77
2023-05-08T18:07:19.611Z,8.73
2023-05-08T18:09:47.374Z,9.23
2023-05-08T18:12:15.573Z,9.00
2023-05-08T18:14:44.422Z,8.98
2023-05-08T18:17:15.399Z,9.25
2023-05-08T18:19:43.736Z,9.02
2023-05-08T18:22:12.912Z,8.60
2023-05-08T18:24:40.724Z,7.90
2023-05-08T18:27:09.208Z,8.52
2023-05-08T18:29:36.974Z,8.23
2023-05-08T18:32:05.167Z,8.43
2023-05-08T18:34:32.983Z,9.00
2023-05-08T18:37:00.762Z,9.85
2023-05-08T18:39:29.929Z,10.57
2023-05-08T18:41:58.234Z,10.82
2023-05-08T18:44:26.045Z,10.93
2023-05-08T18:46:53.797Z,11.10
2023-05-08T18:49:22.193Z,12.10
2023-05-08T18:51:49.982Z,11.88
2023-05-08T18:54:17.757Z,11.85
2023-05-08T18:56:47.205Z,11.93
2023-05-08T18:59:14.977Z,12.75
2023-05-08T19:01:42.751Z,12.70
2023-05-08T19:04:10.676Z,12.23
2023-05-08T19:06:38.585Z,11.43
2023-05-08T19:09:06.412Z,11.32
2023-05-08T19:11:34.543Z,10.73
2023-05-08T19:14:04.016Z,9.52
2023-05-08T19:16:31.956Z,9.07
2023-05-08T19:19:00.034Z,10.38
2023-05-08T19:21:27.843Z,9.05
2023-05-08T19:23:55.635Z,9.90
2023-05-08T19:26:23.713Z,9.75
2023-05-08T19:28:51.469Z,9.65
2023-05-08T19:31:20.730Z,9.63
2023-05-08T19:33:49.900Z,9.43
2023-05-08T19:36:18.348Z,8.95
2023-05-08T19:38:46.129Z,10.00
2023-05-08T19:41:14.118Z,9.43
2023-05-08T19:43:41.888Z,9.52
2023-05-08T19:46:09.692Z,9.77
2023-05-08T19:48:40.052Z,9.45
2023-05-08T19:51:08.068Z,10.40
2023-05-08T19:53:35.923Z,9.35
2023-05-08T19:56:03.978Z,10.95
2023-05-08T19:58:31.773Z,11.65
2023-05-08T20:00:59.761Z,11.10
2023-05-08T20:03:28.106Z,10.77
2023-05-08T20:05:57.376Z,12.30
2023-05-08T20:08:25.285Z,12.77
2023-05-08T20:10:53.095Z,12.77
2023-05-08T20:13:21.087Z,13.40
2023-05-08T20:15:49.281Z,12.90
2023-05-08T20:18:17.127Z,12.27
2023-05-08T20:20:46.120Z,12.48
2023-05-08T20:23:15.256Z,13.63
2023-05-08T20:25:46.167Z,13.35
2023-05-08T20:28:13.928Z,14.13
2023-05-08T20:30:41.746Z,14.15
2023-05-08T20:33:09.641Z,14.82
2023-05-08T20:35:37.447Z,14.65
2023-05-08T20:38:05.451Z,13.35
2023-05-08T20:40:35.392Z,14.13
2023-05-08T20:43:03.351Z,14.75
2023-05-08T20:45:31.283Z,15.05
2023-05-08T20:47:59.827Z,14.73
2023-05-08T20:50:27.724Z,13.10
2023-05-08T20:52:55.896Z,14.10
2023-05-08T20:55:24.354Z,14.55
2023-05-08T20:57:53.598Z,14.07
2023-05-08T21:00:22.472Z,13.80
2023-05-08T21:02:50.481Z,15.05
2023-05-08T21:05:18.974Z,13.43
2023-05-08T21:07:46.752Z,13.50
2023-05-08T21:10:16.717Z,14.63
2023-05-08T21:12:45.531Z,13.32
2023-05-08T21:15:15.128Z,12.85
2023-05-08T21:17:43.408Z,13.05
2023-05-08T21:20:12.543Z,13.50
2023-05-08T21:22:40.639Z,12.00
2023-05-08T21:25:12.582Z,12.13
2023-05-08T21:27:42.539Z,12.80
2023-05-08T21:30:15.642Z,11.85
2023-05-08T21:32:45.840Z,12.63
2023-05-08T21:35:14.411Z,11.85
2023-05-08T21:37:42.645Z,11.65
2023-05-08T21:40:10.842Z,10.57
2023-05-08T21:42:40.292Z,10.65
2023-05-08T21:45:08.873Z,10.10
2023-05-08T21:47:36.657Z,10.32
2023-05-08T21:50:07.166Z,10.07
2023-05-08T21:52:35.845Z,10.52
2023-05-08T21:55:08.358Z,9.27
2023-05-08T21:57:36.630Z,9.95
2023-05-08T22:00:05.458Z,9.25
2023-05-08T22:02:33.340Z,8.63
2023-05-08T22:05:01.550Z,8.82
2023-05-08T22:07:30.821Z,8.88
2023-05-08T22:09:58.602Z,9.88
2023-05-08T22:12:26.715Z,8.75
2023-05-08T22:14:54.484Z,8.50
2023-05-08T22:17:22.204Z,8.60
2023-05-08T22:19:49.962Z,8.45
2023-05-08T22:22:17.693Z,8.10
2023-05-08T22:24:46.813Z,8.63
2023-05-08T22:27:14.782Z,8.23
2023-05-08T22:29:42.485Z,7.53
2023-05-08T22:32:10.367Z,6.93
2023-05-08T22:34:38.281Z,7.68
2023-05-08T22:37:06.222Z,7.43
2023-05-08T22:39:34.021Z,7.10
2023-05-08T22:42:03.664Z,7.50
2023-05-08T22:46:59.509Z,6.97
2023-05-08T22:49:27.649Z,6.70
2023-05-08T22:51:55.841Z,6.70
2023-05-08T22:54:23.686Z,6.60
2023-05-08T22:56:51.736Z,6.68
2023-05-08T22:59:20.877Z,6.85
2023-05-08T23:01:48.625Z,6.38
2023-05-08T23:04:16.671Z,7.10
2023-05-08T23:06:44.423Z,5.80
2023-05-08T23:09:12.436Z,5.93
2023-05-08T23:11:40.823Z,6.35
2023-05-08T23:14:08.589Z,6.18
2023-05-08T23:16:37.907Z,6.22
2023-05-08T23:19:07.591Z,6.45
2023-05-08T23:21:35.375Z,5.75
2023-05-08T23:24:03.173Z,6.68
2023-05-08T23:26:31.293Z,5.90
2023-05-08T23:28:59.106Z,6.25
2023-05-08T23:31:27.046Z,6.22
2023-05-08T23:33:56.537Z,6.70
2023-05-08T23:36:24.617Z,7.32
2023-05-08T23:38:52.593Z,7.35
2023-05-08T23:41:20.589Z,6.90
2023-05-08T23:43:48.659Z,6.72
2023-05-08T23:46:16.740Z,7.07
2023-05-08T23:48:45.155Z,6.95
2023-05-08T23:51:14.360Z,6.80
2023-05-08T23:53:42.256Z,5.85
2023-05-08T23:56:10.980Z,6.28
2023-05-08T23:58:38.902Z,6.50
